Time;durP1;ratioP1;P1;durP2;ratioP2;P2;SDS_P1;SDS_P2;PMS_P1;PMS_P2;Temp;Humidity;BMP_temperature;BMP_pressure;BME280_temperature;BME280_humidity;BME280_pressure;Samples;Min_cycle;Max_cycle;Signal;HPM_P1;HPM_P2
2021/05/01 00:00:41;;;;;;;0.00;0.00;;;;;;;;;;5015119;28;20646;-62
2021/05/01 00:03:08;;;;;;;1.60;1.60;;;;;;;;;;5014011;28;20620;-66
2021/05/01 00:05:34;;;;;;;0.00;0.00;;;;;;;;;;5014251;28;20188;-66
2021/05/01 00:08:01;;;;;;;0.00;0.00;;;;;;;;;;5013775;28;20195;-65
2021/05/01 00:10:29;;;;;;;0.00;0.00;;;;;;;;;;5014791;28;20278;-65
2021/05/01 00:12:56;;;;;;;0.00;0.00;;;;;;;;;;5010287;28;20548;-65
2021/05/01 00:15:23;;;;;;;0.10;0.00;;;;;;;;;;5010462;28;20211;-65
2021/05/01 00:17:49;;;;;;;0.00;0.00;;;;;;;;;;5016112;28;20195;-65
2021/05/01 00:20:16;;;;;;;0.00;0.00;;;;;;;;;;5015281;28;20556;-65
2021/05/01 00:22:42;;;;;;;4.63;0.53;;;;;;;;;;5016899;28;20690;-66
2021/05/01 00:25:09;;;;;;;0.87;0.53;;;;;;;;;;5014761;28;20282;-65
2021/05/01 00:27:36;;;;;;;1.83;0.60;;;;;;;;;;5015045;28;20192;-65
2021/05/01 00:30:03;;;;;;;0.00;0.00;;;;;;;;;;5021545;28;20283;-65
2021/05/01 00:32:29;;;;;;;0.50;0.50;;;;;;;;;;5015914;28;20192;-66
2021/05/01 00:34:56;;;;;;;0.00;0.00;;;;;;;;;;5016291;28;20270;-66
2021/05/01 00:37:22;;;;;;;0.10;0.10;;;;;;;;;;5015657;28;20278;-66
2021/05/01 00:39:49;;;;;;;0.00;0.00;;;;;;;;;;5015078;28;20223;-66
2021/05/01 00:42:15;;;;;;;0.10;0.10;;;;;;;;;;5014461;28;20489;-65
2021/05/01 00:44:42;;;;;;;0.20;0.20;;;;;;;;;;5012968;28;20211;-65
2021/05/01 00:47:08;;;;;;;0.00;0.00;;;;;;;;;;5014428;28;20606;-66
2021/05/01 00:49:35;;;;;;;0.00;0.00;;;;;;;;;;5015860;28;20578;-65
2021/05/01 00:52:02;;;;;;;16.83;2.50;;;;;;;;;;5015078;28;20860;-65
2021/05/01 00:54:28;;;;;;;0.00;0.00;;;;;;;;;;5014052;28;20239;-66
2021/05/01 00:56:55;;;;;;;0.00;0.00;;;;;;;;;;5013654;28;20600;-66
2021/05/01 00:59:21;;;;;;;0.00;0.00;;;;;;;;;;5014992;28;20315;-65
2021/05/01 01:01:50;;;;;;;0.00;0.00;;;;;;;;;;5015299;28;20437;-65
2021/05/01 01:04:18;;;;;;;0.00;0.00;;;;;;;;;;5015639;28;20203;-66
2021/05/01 01:06:45;;;;;;;0.00;0.00;;;;;;;;;;5015905;28;20203;-65
2021/05/01 01:09:12;;;;;;;0.43;0.43;;;;;;;;;;5020683;28;20187;-66
2021/05/01 01:11:38;;;;;;;0.00;0.00;;;;;;;;;;5015015;28;20265;-65
2021/05/01 01:14:06;;;;;;;1.00;0.30;;;;;;;;;;5016981;28;20188;-65
2021/05/01 01:16:32;;;;;;;0.00;0.00;;;;;;;;;;5014621;28;20196;-66
2021/05/01 01:18:59;;;;;;;0.20;0.20;;;;;;;;;;5014361;28;20235;-65
2021/05/01 01:21:26;;;;;;;0.43;0.43;;;;;;;;;;5012381;28;20250;-65
2021/05/01 01:23:53;;;;;;;0.30;0.20;;;;;;;;;;5014679;28;20198;-65
2021/05/01 01:26:20;;;;;;;0.00;0.00;;;;;;;;;;5015080;28;20198;-65
2021/05/01 01:28:47;;;;;;;0.00;0.00;;;;;;;;;;5017274;28;20275;-65
2021/05/01 01:31:14;;;;;;;0.00;0.00;;;;;;;;;;5009527;28;20185;-66
2021/05/01 01:33:41;;;;;;;0.10;0.10;;;;;;;;;;5014519;28;20278;-65
2021/05/01 01:36:08;;;;;;;0.00;0.00;;;;;;;;;;5015665;28;20196;-65
2021/05/01 01:38:35;;;;;;;0.37;0.37;;;;;;;;;;5014893;28;20204;-65
2021/05/01 01:41:01;;;;;;;0.00;0.00;;;;;;;;;;5017787;28;20180;-65
2021/05/01 01:43:28;;;;;;;0.00;0.00;;;;;;;;;;5017153;28;20188;-65
2021/05/01 01:45:54;;;;;;;0.00;0.00;;;;;;;;;;5014507;28;21208;-65
2021/05/01 01:48:23;;;;;;;0.00;0.00;;;;;;;;;;5013908;28;20657;-65
2021/05/01 01:50:49;;;;;;;0.00;0.00;;;;;;;;;;5013874;28;20214;-64
2021/05/01 01:53:18;;;;;;;0.87;0.63;;;;;;;;;;5015166;28;20219;-65
2021/05/01 01:55:46;;;;;;;0.47;0.47;;;;;;;;;;5014700;28;20585;-64
2021/05/01 01:58:13;;;;;;;0.00;0.00;;;;;;;;;;5016179;28;20710;-65
2021/05/01 02:00:40;;;;;;;0.00;0.00;;;;;;;;;;5014426;28;20195;-65
2021/05/01 02:03:06;;;;;;;0.00;0.00;;;;;;;;;;5012980;28;20646;-65
2021/05/01 02:05:33;;;;;;;0.00;0.00;;;;;;;;;;5014366;28;20184;-66
2021/05/01 02:07:59;;;;;;;0.33;0.30;;;;;;;;;;5017167;28;20270;-65
2021/05/01 02:10:26;;;;;;;0.00;0.00;;;;;;;;;;5016111;28;20274;-65
2021/05/01 02:12:55;;;;;;;2.00;0.40;;;;;;;;;;5017034;28;20586;-65
2021/05/01 02:15:23;;;;;;;3.80;1.30;;;;;;;;;;5019798;28;20180;-64
2021/05/01 02:17:51;;;;;;;0.20;0.20;;;;;;;;;;5015565;28;20184;-65
2021/05/01 02:20:19;;;;;;;0.43;0.43;;;;;;;;;;5017162;28;20180;-65
2021/05/01 02:22:46;;;;;;;0.00;0.00;;;;;;;;;;5017768;28;20226;-65
2021/05/01 02:25:16;;;;;;;0.23;0.17;;;;;;;;;;5017391;28;20179;-65
2021/05/01 02:27:43;;;;;;;0.10;0.10;;;;;;;;;;5019901;28;20188;-65
2021/05/01 02:30:14;;;;;;;0.10;0.10;;;;;;;;;;5019266;28;20344;-66
2021/05/01 02:32:43;;;;;;;0.00;0.00;;;;;;;;;;5016999;28;20196;-66
2021/05/01 02:35:11;;;;;;;0.20;0.20;;;;;;;;;;5023594;28;20186;-66
2021/05/01 02:37:42;;;;;;;0.00;0.00;;;;;;;;;;5023577;28;20211;-65
2021/05/01 02:40:10;;;;;;;0.27;0.23;;;;;;;;;;5018656;28;20416;-65
2021/05/01 02:42:37;;;;;;;0.20;0.20;;;;;;;;;;5017831;28;20227;-65
2021/05/01 02:45:05;;;;;;;0.00;0.00;;;;;;;;;;5018319;28;20188;-65
2021/05/01 02:47:36;;;;;;;0.10;0.10;;;;;;;;;;5018874;28;20268;-65
2021/05/01 02:50:04;;;;;;;0.00;0.00;;;;;;;;;;5019089;28;20922;-65
2021/05/01 02:52:31;;;;;;;0.47;0.47;;;;;;;;;;5022302;28;20509;-65
2021/05/01 02:54:57;;;;;;;0.10;0.10;;;;;;;;;;5018310;28;20380;-65
2021/05/01 02:57:24;;;;;;;0.53;0.53;;;;;;;;;;5018417;28;20754;-65
2021/05/01 03:00:03;;;;;;;0.10;0.10;;;;;;;;;;5021250;28;20250;-64
2021/05/01 03:02:30;;;;;;;4.03;0.50;;;;;;;;;;5018090;28;20602;-64
2021/05/01 03:04:57;;;;;;;0.00;0.00;;;;;;;;;;5017828;28;20239;-65
2021/05/01 03:07:24;;;;;;;0.00;0.00;;;;;;;;;;5018161;28;20275;-65
2021/05/01 03:09:52;;;;;;;0.20;0.20;;;;;;;;;;5023294;28;20846;-65
2021/05/01 03:12:18;;;;;;;0.47;0.47;;;;;;;;;;5017079;28;20461;-65
2021/05/01 03:14:47;;;;;;;0.20;0.20;;;;;;;;;;5022062;28;20188;-66
2021/05/01 03:17:17;;;;;;;0.00;0.00;;;;;;;;;;5017807;28;20199;-65
2021/05/01 03:19:43;;;;;;;0.00;0.00;;;;;;;;;;5017719;28;20222;-66
2021/05/01 03:22:10;;;;;;;0.00;0.00;;;;;;;;;;5018710;28;20182;-66
2021/05/01 03:24:38;;;;;;;0.10;0.10;;;;;;;;;;5017663;28;20815;-65
2021/05/01 03:27:04;;;;;;;0.40;0.30;;;;;;;;;;5016217;28;20206;-65
2021/05/01 03:29:31;;;;;;;0.17;0.17;;;;;;;;;;5018052;28;20653;-65
2021/05/01 03:31:57;;;;;;;6.73;0.97;;;;;;;;;;5014165;28;20827;-65
2021/05/01 03:34:24;;;;;;;0.40;0.40;;;;;;;;;;5018241;28;20187;-65
2021/05/01 03:36:51;;;;;;;3.00;1.07;;;;;;;;;;5017098;28;20279;-65
2021/05/01 03:39:17;;;;;;;0.23;0.23;;;;;;;;;;5018108;28;20588;-65
2021/05/01 03:41:44;;;;;;;0.10;0.10;;;;;;;;;;5019997;28;20760;-65
2021/05/01 03:44:14;;;;;;;0.00;0.00;;;;;;;;;;5017029;28;20499;-65
2021/05/01 03:46:41;;;;;;;0.13;0.13;;;;;;;;;;5019352;28;20191;-65
2021/05/01 03:49:07;;;;;;;0.03;0.03;;;;;;;;;;5015811;28;20581;-65
2021/05/01 03:51:34;;;;;;;0.00;0.00;;;;;;;;;;5017188;28;20521;-65
2021/05/01 03:54:03;;;;;;;0.87;0.87;;;;;;;;;;5020516;28;20442;-65
2021/05/01 03:56:34;;;;;;;0.10;0.10;;;;;;;;;;5016721;28;20191;-65
2021/05/01 03:59:01;;;;;;;0.10;0.10;;;;;;;;;;5016427;28;20231;-65
2021/05/01 04:01:27;;;;;;;0.00;0.00;;;;;;;;;;5020001;28;20989;-65
2021/05/01 04:03:54;;;;;;;5.60;2.93;;;;;;;;;;5016305;28;20696;-65
2021/05/01 04:06:21;;;;;;;0.20;0.20;;;;;;;;;;5016180;28;20187;-65
2021/05/01 04:08:47;;;;;;;0.47;0.47;;;;;;;;;;5015885;28;20187;-65
2021/05/01 04:11:14;;;;;;;0.10;0.10;;;;;;;;;;5016895;28;20195;-65
2021/05/01 04:13:48;;;;;;;4.10;1.30;;;;;;;;;;5020056;28;20798;-65
2021/05/01 04:16:20;;;;;;;0.07;0.07;;;;;;;;;;5016850;28;20249;-65
2021/05/01 04:18:47;;;;;;;0.40;0.40;;;;;;;;;;5017319;28;20210;-66
2021/05/01 04:21:15;;;;;;;0.30;0.30;;;;;;;;;;5020496;28;20215;-65
2021/05/01 04:23:41;;;;;;;1.80;1.07;;;;;;;;;;5016130;28;20187;-65
2021/05/01 04:26:08;;;;;;;0.50;0.50;;;;;;;;;;5016618;28;20735;-66
2021/05/01 04:28:34;;;;;;;0.00;0.00;;;;;;;;;;5016308;28;20211;-65
2021/05/01 04:31:01;;;;;;;0.00;0.00;;;;;;;;;;5016294;28;20486;-65
2021/05/01 04:33:28;;;;;;;0.00;0.00;;;;;;;;;;5016406;28;20191;-65
2021/05/01 04:35:55;;;;;;;0.00;0.00;;;;;;;;;;5017176;28;20180;-65
2021/05/01 04:38:22;;;;;;;0.10;0.10;;;;;;;;;;5016519;28;20368;-65
2021/05/01 04:40:55;;;;;;;0.20;0.20;;;;;;;;;;5016318;28;20213;-65
2021/05/01 04:43:25;;;;;;;0.17;0.17;;;;;;;;;;5015101;28;20187;-65
2021/05/01 04:45:53;;;;;;;0.00;0.00;;;;;;;;;;5016399;28;20559;-65
2021/05/01 04:48:24;;;;;;;0.00;0.00;;;;;;;;;;5016076;28;20198;-65
2021/05/01 04:50:53;;;;;;;19.17;0.37;;;;;;;;;;5015880;28;20654;-65
2021/05/01 04:53:20;;;;;;;0.00;0.00;;;;;;;;;;5015848;28;20196;-65
2021/05/01 04:55:51;;;;;;;0.10;0.10;;;;;;;;;;5019204;28;20913;-65
2021/05/01 04:58:20;;;;;;;0.00;0.00;;;;;;;;;;5015505;28;20219;-65
2021/05/01 05:00:47;;;;;;;0.33;0.33;;;;;;;;;;5014428;28;20222;-65
2021/05/01 12:57:16;;;;;;;0.20;0.00;;;;;;;;;;5070713;27;20573;-64
2021/05/01 12:59:44;;;;;;;2.53;0.53;;;;;;;;;;5063455;28;20193;-63
2021/05/01 13:02:11;;;;;;;0.00;0.00;;;;;;;;;;5060035;28;20887;-62
2021/05/01 13:04:39;;;;;;;0.00;0.00;;;;;;;;;;5059241;28;20185;-63
2021/05/01 13:07:07;;;;;;;0.30;0.20;;;;;;;;;;5061216;28;20186;-63
2021/05/01 13:09:37;;;;;;;0.00;0.00;;;;;;;;;;5062906;28;20552;-62
2021/05/01 13:12:03;;;;;;;0.77;0.30;;;;;;;;;;5058008;28;20277;-63
2021/05/01 13:14:30;;;;;;;0.20;0.20;;;;;;;;;;5050666;28;20453;-63
2021/05/01 13:16:59;;;;;;;0.10;0.00;;;;;;;;;;5053150;28;20210;-64
2021/05/01 13:19:27;;;;;;;0.47;0.20;;;;;;;;;;5051761;28;20174;-63
2021/05/01 13:21:58;;;;;;;0.43;0.17;;;;;;;;;;5053075;28;20183;-63
2021/05/01 13:24:34;;;;;;;2.83;0.90;;;;;;;;;;5053813;28;20757;-63
2021/05/01 13:27:01;;;;;;;0.00;0.00;;;;;;;;;;5051347;28;20510;-63
2021/05/01 13:29:32;;;;;;;0.33;0.07;;;;;;;;;;5053997;28;20194;-63
2021/05/01 13:31:58;;;;;;;0.00;0.00;;;;;;;;;;5051461;28;20187;-63
2021/05/01 13:34:25;;;;;;;0.43;0.20;;;;;;;;;;5048979;28;20248;-63
2021/05/01 13:36:52;;;;;;;0.10;0.10;;;;;;;;;;5052413;28;20195;-63
2021/05/01 13:39:19;;;;;;;0.20;0.10;;;;;;;;;;5052993;28;20602;-63
2021/05/01 13:42:04;;;;;;;0.43;0.43;;;;;;;;;;5046612;28;20198;-62
2021/05/01 13:44:41;;;;;;;0.00;0.00;;;;;;;;;;5048824;28;20186;-63
2021/05/01 13:47:24;;;;;;;0.10;0.10;;;;;;;;;;5070893;28;20361;-63
2021/05/01 13:49:55;;;;;;;0.00;0.00;;;;;;;;;;5052556;28;20551;-63
2021/05/01 13:52:25;;;;;;;1.23;0.43;;;;;;;;;;5056575;28;20747;-63
2021/05/01 13:54:52;;;;;;;1.17;0.53;;;;;;;;;;5045692;28;20297;-63
2021/05/01 13:57:26;;;;;;;3.97;1.90;;;;;;;;;;5050406;28;20368;-62
2021/05/01 14:00:02;;;;;;;1.37;0.60;;;;;;;;;;5049218;28;20699;-63
2021/05/01 14:02:36;;;;;;;0.47;0.47;;;;;;;;;;5047300;28;20763;-63
2021/05/01 14:05:03;;;;;;;0.00;0.00;;;;;;;;;;5053627;28;20183;-62
2021/05/01 14:07:33;;;;;;;2.57;1.30;;;;;;;;;;5041760;28;20391;-63
2021/05/01 14:10:00;;;;;;;0.20;0.20;;;;;;;;;;5036176;28;20846;-63
2021/05/01 14:12:30;;;;;;;2.13;0.93;;;;;;;;;;5033725;28;20228;-63
2021/05/01 14:14:57;;;;;;;5.83;3.10;;;;;;;;;;5040250;28;20187;-63
2021/05/01 14:17:27;;;;;;;8.73;0.80;;;;;;;;;;5042227;28;20936;-63
2021/05/01 14:19:58;;;;;;;0.57;0.27;;;;;;;;;;5037011;28;20271;-64
2021/05/01 14:22:25;;;;;;;0.00;0.00;;;;;;;;;;5031862;28;20207;-63
2021/05/01 14:24:52;;;;;;;0.00;0.00;;;;;;;;;;5033999;28;20191;-63
2021/05/01 14:27:19;;;;;;;0.27;0.10;;;;;;;;;;5037838;28;20172;-63
2021/05/01 14:29:57;;;;;;;0.20;0.20;;;;;;;;;;5036911;28;20187;-63
2021/05/01 14:32:24;;;;;;;0.60;0.40;;;;;;;;;;5031075;28;20191;-64
2021/05/01 14:34:53;;;;;;;0.03;0.03;;;;;;;;;;5037438;28;20522;-63
2021/05/01 14:37:20;;;;;;;0.30;0.30;;;;;;;;;;5042525;28;20186;-64
2021/05/01 14:39:48;;;;;;;0.10;0.10;;;;;;;;;;5035311;28;20737;-64
2021/05/01 14:42:14;;;;;;;0.20;0.20;;;;;;;;;;5034135;28;20241;-63
2021/05/01 14:44:42;;;;;;;0.53;0.53;;;;;;;;;;5035845;28;20182;-64
2021/05/01 14:47:14;;;;;;;0.00;0.00;;;;;;;;;;5032237;28;20672;-63
2021/05/01 14:49:42;;;;;;;2.20;0.60;;;;;;;;;;5035984;28;20186;-64
2021/05/01 14:52:09;;;;;;;0.00;0.00;;;;;;;;;;5034469;28;20196;-64
2021/05/01 14:54:42;;;;;;;0.00;0.00;;;;;;;;;;5033181;28;20708;-63
2021/05/01 14:57:14;;;;;;;0.20;0.10;;;;;;;;;;5034915;28;20408;-64
2021/05/01 14:59:45;;;;;;;0.73;0.30;;;;;;;;;;5035948;28;20273;-63
2021/05/01 15:02:12;;;;;;;0.40;0.40;;;;;;;;;;5037241;28;20672;-63
2021/05/01 15:04:48;;;;;;;0.00;0.00;;;;;;;;;;5037839;28;20293;-64
2021/05/01 15:07:14;;;;;;;0.07;0.07;;;;;;;;;;5037016;28;20191;-64
2021/05/01 15:09:44;;;;;;;0.93;0.87;;;;;;;;;;5037971;28;20222;-64
2021/05/01 15:12:10;;;;;;;0.00;0.00;;;;;;;;;;5035304;28;20517;-64
2021/05/01 15:14:37;;;;;;;0.13;0.00;;;;;;;;;;5034380;28;20216;-64
2021/05/01 15:17:03;;;;;;;0.00;0.00;;;;;;;;;;5034011;28;20215;-64
2021/05/01 15:19:31;;;;;;;0.00;0.00;;;;;;;;;;5035821;28;20191;-64
2021/05/01 15:22:01;;;;;;;0.27;0.10;;;;;;;;;;5036173;28;20640;-64
2021/05/01 15:24:27;;;;;;;0.10;0.10;;;;;;;;;;5035946;28;20195;-65
2021/05/01 15:26:54;;;;;;;0.20;0.20;;;;;;;;;;5036251;28;20536;-63
2021/05/01 15:29:21;;;;;;;0.03;0.00;;;;;;;;;;5033124;28;20699;-63
2021/05/01 15:31:47;;;;;;;2.13;0.30;;;;;;;;;;5032064;28;20286;-63
2021/05/01 15:34:14;;;;;;;0.10;0.10;;;;;;;;;;5034886;28;20187;-62
2021/05/01 15:36:40;;;;;;;1.60;1.50;;;;;;;;;;5036213;28;20802;-63
2021/05/01 15:39:07;;;;;;;1.03;0.60;;;;;;;;;;5034311;28;20507;-62
2021/05/01 15:41:33;;;;;;;0.40;0.23;;;;;;;;;;5026366;28;21430;-65
2021/05/01 15:44:00;;;;;;;0.20;0.20;;;;;;;;;;5045376;28;20407;-63
2021/05/01 15:46:26;;;;;;;0.00;0.00;;;;;;;;;;5038463;28;20191;-64
2021/05/01 15:48:53;;;;;;;2.90;0.57;;;;;;;;;;5037769;28;21077;-62
2021/05/01 15:51:20;;;;;;;0.27;0.20;;;;;;;;;;5040180;28;20923;-62
2021/05/01 15:53:47;;;;;;;1.50;0.43;;;;;;;;;;5034700;28;20195;-62
2021/05/01 15:56:13;;;;;;;0.30;0.17;;;;;;;;;;5035492;28;20234;-62
2021/05/01 15:58:40;;;;;;;0.37;0.37;;;;;;;;;;5046639;28;20314;-63
2021/05/01 16:01:06;;;;;;;0.20;0.20;;;;;;;;;;5039176;28;20191;-62
2021/05/01 16:03:33;;;;;;;0.03;0.03;;;;;;;;;;5038381;28;20191;-63
2021/05/01 16:06:00;;;;;;;0.10;0.10;;;;;;;;;;5039214;28;20183;-63
2021/05/01 16:08:26;;;;;;;0.57;0.30;;;;;;;;;;5047050;28;20183;-63
2021/05/01 16:10:54;;;;;;;0.03;0.03;;;;;;;;;;5032496;28;20340;-62
2021/05/01 16:13:20;;;;;;;2.70;0.53;;;;;;;;;;5031002;28;20187;-63
2021/05/01 16:15:47;;;;;;;0.00;0.00;;;;;;;;;;5035573;28;20848;-63
2021/05/01 16:18:14;;;;;;;1.53;0.40;;;;;;;;;;5034660;28;20510;-62
2021/05/01 16:20:40;;;;;;;0.00;0.00;;;;;;;;;;5031519;28;20538;-63
2021/05/01 16:23:07;;;;;;;0.00;0.00;;;;;;;;;;5038297;28;20195;-62
2021/05/01 16:25:34;;;;;;;0.00;0.00;;;;;;;;;;5037205;28;20464;-63
2021/05/01 16:28:01;;;;;;;0.10;0.10;;;;;;;;;;5032821;28;20187;-63
2021/05/01 16:30:28;;;;;;;0.30;0.10;;;;;;;;;;5035115;28;20202;-63
2021/05/01 16:32:54;;;;;;;0.77;0.57;;;;;;;;;;5033799;28;20248;-62
2021/05/01 16:35:21;;;;;;;0.60;0.30;;;;;;;;;;5035923;28;20803;-63
2021/05/01 16:37:48;;;;;;;0.00;0.00;;;;;;;;;;5031956;28;20194;-63
2021/05/01 16:40:14;;;;;;;0.47;0.47;;;;;;;;;;5034917;28;20184;-63
2021/05/01 16:42:41;;;;;;;0.47;0.33;;;;;;;;;;5032975;28;20207;-62
2021/05/01 16:45:09;;;;;;;0.00;0.00;;;;;;;;;;5035575;28;20214;-63
2021/05/01 16:47:36;;;;;;;0.43;0.40;;;;;;;;;;5035354;28;20188;-62
2021/05/01 16:50:04;;;;;;;0.10;0.10;;;;;;;;;;5036408;28;20184;-62
2021/05/01 16:52:30;;;;;;;0.00;0.00;;;;;;;;;;5033869;28;20624;-63
2021/05/01 16:54:57;;;;;;;0.00;0.00;;;;;;;;;;5032301;28;20175;-62
2021/05/01 16:57:23;;;;;;;2.50;1.10;;;;;;;;;;5034781;28;20746;-64
2021/05/01 16:59:50;;;;;;;1.30;1.30;;;;;;;;;;5033390;28;20253;-63
2021/05/01 17:02:16;;;;;;;0.20;0.20;;;;;;;;;;5038716;28;20198;-62
2021/05/01 17:04:42;;;;;;;0.00;0.00;;;;;;;;;;5038294;28;20190;-63
2021/05/01 17:07:09;;;;;;;0.00;0.00;;;;;;;;;;5035043;28;20195;-62
2021/05/01 17:09:35;;;;;;;0.30;0.10;;;;;;;;;;5032943;28;20191;-63
2021/05/01 17:12:02;;;;;;;0.00;0.00;;;;;;;;;;5035192;28;20195;-63
2021/05/01 17:14:28;;;;;;;1.10;0.50;;;;;;;;;;5035161;28;20239;-62
2021/05/01 17:16:56;;;;;;;0.20;0.20;;;;;;;;;;5034942;28;20218;-63
2021/05/01 17:19:22;;;;;;;0.20;0.13;;;;;;;;;;5033263;28;20549;-62
2021/05/01 17:21:49;;;;;;;0.00;0.00;;;;;;;;;;5032442;28;20184;-63
2021/05/01 17:24:15;;;;;;;0.00;0.00;;;;;;;;;;5034752;28;20640;-63
2021/05/01 17:26:42;;;;;;;0.00;0.00;;;;;;;;;;5033758;28;20195;-63
2021/05/01 17:29:09;;;;;;;0.00;0.00;;;;;;;;;;5033391;28;20662;-63
2021/05/01 17:31:36;;;;;;;0.00;0.00;;;;;;;;;;5031124;28;20209;-63
2021/05/01 17:34:03;;;;;;;0.20;0.20;;;;;;;;;;5032696;28;20660;-63
2021/05/01 17:36:29;;;;;;;0.00;0.00;;;;;;;;;;5037468;28;20253;-62
2021/05/01 17:38:56;;;;;;;0.00;0.00;;;;;;;;;;5032143;28;20187;-62
2021/05/01 17:41:22;;;;;;;0.10;0.10;;;;;;;;;;5031148;28;20187;-62
2021/05/01 17:43:49;;;;;;;0.10;0.10;;;;;;;;;;5032227;28;20223;-63
2021/05/01 17:46:16;;;;;;;0.10;0.10;;;;;;;;;;5033585;28;20369;-62
2021/05/01 17:48:45;;;;;;;1.30;0.13;;;;;;;;;;5036707;28;20190;-64
2021/05/01 17:51:11;;;;;;;1.93;0.50;;;;;;;;;;5033312;28;20190;-62
2021/05/01 17:53:38;;;;;;;1.00;0.33;;;;;;;;;;5035723;28;20195;-62
2021/05/01 17:56:04;;;;;;;0.10;0.10;;;;;;;;;;5038815;28;20737;-62
2021/05/01 17:58:31;;;;;;;0.00;0.00;;;;;;;;;;5036467;28;20195;-63
2021/05/01 18:00:58;;;;;;;0.00;0.00;;;;;;;;;;5041386;28;20221;-62
2021/05/01 18:03:25;;;;;;;0.00;0.00;;;;;;;;;;5038111;28;20187;-64
2021/05/01 18:05:52;;;;;;;0.00;0.00;;;;;;;;;;5037634;28;20187;-63
2021/05/01 18:08:18;;;;;;;0.20;0.10;;;;;;;;;;5037632;28;20313;-62
2021/05/01 18:10:45;;;;;;;0.00;0.00;;;;;;;;;;5037522;28;20191;-62
2021/05/01 18:13:12;;;;;;;1.60;0.50;;;;;;;;;;5041161;28;20707;-63
2021/05/01 18:15:38;;;;;;;0.20;0.20;;;;;;;;;;5037673;28;20659;-62
2021/05/01 18:18:05;;;;;;;1.13;1.13;;;;;;;;;;5038506;28;20373;-62
2021/05/01 18:20:31;;;;;;;0.40;0.10;;;;;;;;;;5037946;28;20796;-62
2021/05/01 18:22:58;;;;;;;0.10;0.10;;;;;;;;;;5038185;28;20630;-63
2021/05/01 18:25:24;;;;;;;0.10;0.00;;;;;;;;;;5040279;28;20632;-62
2021/05/01 18:27:51;;;;;;;0.00;0.00;;;;;;;;;;5045690;28;20698;-62
2021/05/01 18:30:18;;;;;;;0.97;0.87;;;;;;;;;;5037194;28;20285;-62
2021/05/01 18:32:45;;;;;;;0.00;0.00;;;;;;;;;;5039381;28;20183;-63
2021/05/01 18:35:13;;;;;;;0.50;0.40;;;;;;;;;;5043344;28;20191;-63
2021/05/01 18:37:40;;;;;;;5.73;5.33;;;;;;;;;;5038202;28;20195;-62
2021/05/01 18:40:07;;;;;;;0.77;0.20;;;;;;;;;;5041423;28;20493;-62
2021/05/01 18:42:36;;;;;;;0.57;0.57;;;;;;;;;;5038857;28;20739;-63
2021/05/01 18:45:03;;;;;;;1.40;1.30;;;;;;;;;;5041444;28;20685;-67
2021/05/01 18:47:30;;;;;;;1.37;0.20;;;;;;;;;;5030456;28;20191;-66
2021/05/01 18:49:57;;;;;;;1.57;0.23;;;;;;;;;;5030754;28;20188;-67
2021/05/01 18:52:23;;;;;;;0.90;0.27;;;;;;;;;;5043854;28;20183;-67
2021/05/01 18:54:50;;;;;;;0.67;0.10;;;;;;;;;;5031433;28;20187;-67
2021/05/01 18:57:17;;;;;;;0.20;0.20;;;;;;;;;;5038675;28;20728;-66
2021/05/01 18:59:43;;;;;;;2.57;0.63;;;;;;;;;;5039563;28;20237;-66
2021/05/01 19:02:10;;;;;;;0.27;0.27;;;;;;;;;;5032154;28;20344;-66
2021/05/01 19:04:37;;;;;;;0.00;0.00;;;;;;;;;;5037321;28;20279;-67
2021/05/01 19:07:04;;;;;;;0.83;0.30;;;;;;;;;;5037217;28;20372;-67
2021/05/01 19:09:30;;;;;;;0.00;0.00;;;;;;;;;;5035045;28;20211;-66
2021/05/01 19:11:58;;;;;;;2.27;0.90;;;;;;;;;;5035631;28;20183;-67
2021/05/01 19:14:27;;;;;;;1.03;0.47;;;;;;;;;;5036647;28;20688;-66
2021/05/01 19:16:55;;;;;;;0.30;0.30;;;;;;;;;;5040835;28;20214;-67
2021/05/01 19:19:21;;;;;;;0.43;0.30;;;;;;;;;;5035513;28;20186;-66
2021/05/01 19:21:49;;;;;;;0.17;0.10;;;;;;;;;;5041267;28;20260;-67
2021/05/01 19:24:16;;;;;;;1.47;0.70;;;;;;;;;;5039942;28;20458;-66
2021/05/01 19:26:43;;;;;;;0.20;0.17;;;;;;;;;;5036686;28;20695;-66
2021/05/01 19:29:09;;;;;;;0.50;0.50;;;;;;;;;;5035452;28;20183;-67
2021/05/01 19:31:40;;;;;;;2.10;0.40;;;;;;;;;;5035822;28;20183;-66
2021/05/01 19:34:07;;;;;;;0.00;0.00;;;;;;;;;;5037891;28;20509;-67
2021/05/01 19:36:37;;;;;;;0.27;0.27;;;;;;;;;;5036427;28;20199;-67
2021/05/01 19:39:04;;;;;;;0.10;0.10;;;;;;;;;;5035083;28;20196;-67
2021/05/01 19:41:31;;;;;;;0.00;0.00;;;;;;;;;;5040230;28;20230;-67
2021/05/01 19:43:59;;;;;;;0.00;0.00;;;;;;;;;;5040896;28;20255;-66
2021/05/01 19:46:26;;;;;;;1.30;0.00;;;;;;;;;;5042327;28;20221;-66
2021/05/01 19:48:53;;;;;;;0.43;0.20;;;;;;;;;;5034243;28;20549;-66
2021/05/01 19:51:19;;;;;;;0.00;0.00;;;;;;;;;;5046429;28;20182;-67
2021/05/01 19:53:46;;;;;;;1.53;0.40;;;;;;;;;;5031258;28;20721;-67
2021/05/01 19:56:12;;;;;;;0.00;0.00;;;;;;;;;;5031169;28;20239;-66
2021/05/01 19:58:39;;;;;;;0.00;0.00;;;;;;;;;;5042693;28;20629;-67
2021/05/01 20:01:05;;;;;;;0.10;0.10;;;;;;;;;;5033167;28;20200;-66
2021/05/01 20:03:32;;;;;;;0.37;0.23;;;;;;;;;;5035647;28;20183;-66
2021/05/01 20:06:00;;;;;;;0.13;0.13;;;;;;;;;;5038601;28;20279;-66
2021/05/01 20:08:27;;;;;;;0.00;0.00;;;;;;;;;;5032004;28;20424;-66
2021/05/01 20:10:54;;;;;;;0.00;0.00;;;;;;;;;;5028176;28;20647;-66
2021/05/01 20:13:21;;;;;;;0.00;0.00;;;;;;;;;;5035950;28;20718;-66
2021/05/01 20:15:50;;;;;;;0.07;0.00;;;;;;;;;;5029218;28;20251;-66
2021/05/01 20:18:17;;;;;;;0.70;0.27;;;;;;;;;;5035767;28;20390;-66
2021/05/01 20:20:44;;;;;;;0.00;0.00;;;;;;;;;;5038578;28;20735;-66
2021/05/01 20:23:10;;;;;;;1.20;0.77;;;;;;;;;;5029797;28;20200;-66
2021/05/01 20:25:37;;;;;;;0.00;0.00;;;;;;;;;;5034487;28;20186;-66
2021/05/01 20:28:06;;;;;;;0.00;0.00;;;;;;;;;;5033928;28;20296;-66
2021/05/01 20:30:34;;;;;;;0.50;0.50;;;;;;;;;;5028000;28;20187;-66
2021/05/01 20:33:01;;;;;;;0.07;0.07;;;;;;;;;;5039358;28;20187;-66
2021/05/01 20:35:28;;;;;;;0.10;0.03;;;;;;;;;;5032980;28;20182;-66
2021/05/01 20:37:55;;;;;;;0.13;0.13;;;;;;;;;;5035920;28;20237;-66
2021/05/01 20:40:22;;;;;;;1.33;0.50;;;;;;;;;;5036033;28;20404;-67
2021/05/01 20:42:50;;;;;;;10.83;0.83;;;;;;;;;;5029091;28;20603;-66
2021/05/01 20:45:17;;;;;;;0.00;0.00;;;;;;;;;;5033571;28;20201;-66
2021/05/01 20:47:43;;;;;;;0.10;0.00;;;;;;;;;;5034932;28;20182;-67
2021/05/01 20:50:11;;;;;;;0.80;0.33;;;;;;;;;;5035378;28;20191;-66
2021/05/01 20:52:37;;;;;;;0.47;0.20;;;;;;;;;;5039683;28;20188;-67
2021/05/01 20:55:05;;;;;;;0.00;0.00;;;;;;;;;;5034113;28;20295;-66
2021/05/01 20:57:32;;;;;;;0.00;0.00;;;;;;;;;;5035138;28;20241;-66
2021/05/01 21:00:01;;;;;;;0.00;0.00;;;;;;;;;;5035675;28;20202;-66
2021/05/01 21:02:28;;;;;;;0.00;0.00;;;;;;;;;;5037345;28;20638;-67
2021/05/01 21:04:54;;;;;;;0.07;0.07;;;;;;;;;;5034759;28;20193;-66
2021/05/01 21:07:21;;;;;;;0.00;0.00;;;;;;;;;;5032474;28;20195;-66
2021/05/01 21:09:48;;;;;;;0.00;0.00;;;;;;;;;;5031056;28;20296;-67
2021/05/01 21:12:14;;;;;;;0.00;0.00;;;;;;;;;;5032305;28;20231;-66
2021/05/01 21:14:41;;;;;;;0.00;0.00;;;;;;;;;;5033399;28;20521;-66
2021/05/01 21:17:07;;;;;;;1.13;0.30;;;;;;;;;;5033270;28;20281;-67
2021/05/01 21:19:34;;;;;;;0.10;0.10;;;;;;;;;;5024361;28;20199;-66
2021/05/01 21:22:00;;;;;;;0.00;0.00;;;;;;;;;;5041262;28;20242;-66
2021/05/01 21:24:27;;;;;;;0.00;0.00;;;;;;;;;;5039116;28;20277;-66
2021/05/01 21:26:54;;;;;;;0.53;0.23;;;;;;;;;;5038718;28;20606;-66
2021/05/01 21:29:20;;;;;;;0.10;0.10;;;;;;;;;;5039208;28;20257;-66
2021/05/01 21:31:47;;;;;;;0.40;0.17;;;;;;;;;;5035368;28;20651;-67
2021/05/01 21:34:13;;;;;;;0.03;0.03;;;;;;;;;;5036875;28;20197;-67
2021/05/01 21:36:42;;;;;;;0.00;0.00;;;;;;;;;;5040499;28;20661;-66
2021/05/01 21:39:09;;;;;;;0.00;0.00;;;;;;;;;;5036496;28;20203;-67
2021/05/01 21:41:37;;;;;;;0.90;0.87;;;;;;;;;;5036071;28;20187;-66
2021/05/01 21:44:04;;;;;;;0.07;0.07;;;;;;;;;;5040281;28;20185;-67
2021/05/01 21:46:31;;;;;;;0.00;0.00;;;;;;;;;;5042108;28;20188;-66
2021/05/01 21:49:05;;;;;;;0.00;0.00;;;;;;;;;;5041351;28;20699;-66
2021/05/01 21:51:33;;;;;;;0.00;0.00;;;;;;;;;;5037929;28;20287;-67
2021/05/01 21:53:59;;;;;;;0.20;0.13;;;;;;;;;;5038190;28;20185;-66
2021/05/01 21:56:26;;;;;;;0.00;0.00;;;;;;;;;;5037010;28;20691;-67
2021/05/01 21:58:54;;;;;;;0.00;0.00;;;;;;;;;;5038042;28;20735;-66
2021/05/01 22:01:28;;;;;;;0.00;0.00;;;;;;;;;;5038081;28;20180;-66
2021/05/01 22:03:56;;;;;;;0.90;0.10;;;;;;;;;;5038061;28;20195;-67
2021/05/01 22:06:22;;;;;;;0.00;0.00;;;;;;;;;;5036227;28;20526;-68
2021/05/01 22:08:49;;;;;;;0.00;0.00;;;;;;;;;;5038871;28;20226;-68
2021/05/01 22:11:18;;;;;;;0.00;0.00;;;;;;;;;;5038145;28;20218;-67
2021/05/01 22:13:45;;;;;;;0.13;0.07;;;;;;;;;;5036786;28;20639;-67
2021/05/01 22:16:12;;;;;;;0.00;0.00;;;;;;;;;;5038972;28;20242;-67
2021/05/01 22:18:41;;;;;;;0.20;0.20;;;;;;;;;;5038928;28;20191;-67
2021/05/01 22:21:19;;;;;;;0.00;0.00;;;;;;;;;;5033620;28;20679;-67
2021/05/01 22:26:20;;;;;;;0.00;0.00;;;;;;;;;;5037467;28;20188;-67
2021/05/01 22:28:47;;;;;;;1.23;0.50;;;;;;;;;;5037225;28;21158;-68
2021/05/01 22:31:14;;;;;;;0.00;0.00;;;;;;;;;;5044448;28;20249;-67
2021/05/01 22:33:41;;;;;;;0.00;0.00;;;;;;;;;;5035042;28;20478;-68
2021/05/01 22:36:08;;;;;;;0.00;0.00;;;;;;;;;;5036978;28;20219;-67
2021/05/01 22:38:38;;;;;;;0.93;0.40;;;;;;;;;;5029666;28;20179;-68
2021/05/01 22:41:04;;;;;;;0.00;0.00;;;;;;;;;;5036748;28;20324;-67